Time;durP1;ratioP1;P1;durP2;ratioP2;P2;SDS_P1;SDS_P2;PMS_P1;PMS_P2;Temp;Humidity;BMP_temperature;BMP_pressure;BME280_temperature;BME280_humidity;BME280_pressure;Samples;Min_cycle;Max_cycle;Signal;HPM_P1;HPM_P2
2023/09/08 04:06:31;;;;;;;0.30;0.20;;;13.90;99.90;;;;;;5098380;23;20479;-62
2023/09/08 04:08:56;;;;;;;0.30;0.30;;;13.90;99.90;;;;;;4975593;28;20813;-62
2023/09/08 04:11:22;;;;;;;0.30;0.30;;;13.90;99.90;;;;;;4975748;28;20211;-63
2023/09/08 04:13:47;;;;;;;0.30;0.30;;;13.90;99.90;;;;;;4975415;28;20174;-63
2023/09/08 04:16:13;;;;;;;0.30;0.30;;;13.80;99.90;;;;;;4975340;28;20230;-62
2023/09/08 04:18:39;;;;;;;0.30;0.30;;;13.80;99.90;;;;;;4975621;28;20283;-63
2023/09/08 04:21:07;;;;;;;0.30;0.30;;;13.80;99.90;;;;;;4975486;28;20186;-63
2023/09/08 04:23:32;;;;;;;0.30;0.20;;;13.80;99.90;;;;;;4975207;28;20184;-63
2023/09/08 04:25:58;;;;;;;0.30;0.30;;;13.80;99.90;;;;;;4975292;28;20432;-63
2023/09/08 04:28:24;;;;;;;0.30;0.20;;;13.80;99.90;;;;;;4958150;28;20210;-63
2023/09/08 04:30:49;;;;;;;0.30;0.20;;;13.80;99.90;;;;;;4975405;28;20182;-63
2023/09/08 04:33:15;;;;;;;0.30;0.20;;;13.70;99.90;;;;;;4975526;28;20167;-63
2023/09/08 04:35:40;;;;;;;0.30;0.30;;;13.70;99.90;;;;;;4974202;28;20253;-64
2023/09/08 04:38:06;;;;;;;0.30;0.30;;;13.70;99.90;;;;;;4974629;28;20529;-63
2023/09/08 04:40:32;;;;;;;0.30;0.27;;;13.70;99.90;;;;;;4975256;28;20183;-63
2023/09/08 04:42:57;;;;;;;0.30;0.30;;;13.70;99.90;;;;;;4974990;28;20411;-62
2023/09/08 04:45:23;;;;;;;0.30;0.20;;;13.60;99.90;;;;;;4974642;28;20175;-63
2023/09/08 04:47:49;;;;;;;0.30;0.30;;;13.60;99.90;;;;;;4975328;28;20523;-63
2023/09/08 04:50:15;;;;;;;0.30;0.20;;;13.60;99.90;;;;;;4974995;28;20173;-63
2023/09/08 04:52:40;;;;;;;0.30;0.30;;;13.60;99.90;;;;;;4974931;28;20411;-63
2023/09/08 04:55:07;;;;;;;0.30;0.20;;;13.60;99.90;;;;;;4974668;28;20172;-63
2023/09/08 04:57:32;;;;;;;0.30;0.30;;;13.60;99.90;;;;;;4974599;28;20712;-63
2023/09/08 04:59:58;;;;;;;0.30;0.23;;;13.60;99.90;;;;;;4974291;28;20410;-63
2023/09/08 05:02:23;;;;;;;0.30;0.27;;;13.70;99.90;;;;;;4974722;28;20180;-63
2023/09/08 05:04:49;;;;;;;0.30;0.20;;;13.70;99.90;;;;;;4974539;28;20168;-63
2023/09/08 05:07:15;;;;;;;0.30;0.30;;;13.70;99.90;;;;;;4974625;28;20633;-63
2023/09/08 05:09:40;;;;;;;0.30;0.30;;;13.70;99.90;;;;;;4974699;28;20175;-63
2023/09/08 05:12:06;;;;;;;0.30;0.30;;;13.80;99.90;;;;;;4974894;28;20901;-63
2023/09/08 05:14:32;;;;;;;0.30;0.20;;;13.90;99.90;;;;;;4974307;28;20175;-66
2023/09/08 05:16:57;;;;;;;0.30;0.30;;;14.00;99.90;;;;;;4974433;28;20227;-65
2023/09/08 05:19:23;;;;;;;0.30;0.20;;;14.20;99.90;;;;;;4974515;28;20216;-66
2023/09/08 05:21:51;;;;;;;0.30;0.20;;;14.40;99.90;;;;;;4974600;28;20168;-63
2023/09/08 05:24:17;;;;;;;0.30;0.30;;;14.60;99.90;;;;;;4974286;28;20419;-64
2023/09/08 05:26:42;;;;;;;0.30;0.20;;;14.80;99.90;;;;;;4957154;28;20464;-64
2023/09/08 05:29:08;;;;;;;0.30;0.30;;;14.90;99.90;;;;;;4974322;28;20345;-65
2023/09/08 05:31:34;;;;;;;0.30;0.30;;;15.00;99.90;;;;;;4957179;28;20178;-63
2023/09/08 05:33:59;;;;;;;0.30;0.20;;;15.00;99.90;;;;;;4974081;28;20251;-63
2023/09/08 05:36:25;;;;;;;0.30;0.30;;;15.00;99.90;;;;;;4974374;28;20194;-66
2023/09/08 05:38:51;;;;;;;0.30;0.30;;;15.00;99.90;;;;;;4974523;28;20407;-66
2023/09/08 05:41:16;;;;;;;0.30;0.20;;;15.00;99.90;;;;;;4974105;28;20179;-64
2023/09/08 05:43:42;;;;;;;0.30;0.20;;;15.00;99.90;;;;;;4974320;28;20634;-65
2023/09/08 05:46:07;;;;;;;0.30;0.20;;;15.10;99.90;;;;;;4957334;28;20270;-66
2023/09/08 05:48:33;;;;;;;0.30;0.30;;;15.10;99.90;;;;;;4974033;28;20203;-65
2023/09/08 05:50:59;;;;;;;0.30;0.20;;;15.20;99.90;;;;;;4974542;28;20177;-66
2023/09/08 05:53:25;;;;;;;0.30;0.20;;;15.30;99.90;;;;;;4957091;28;20526;-64
2023/09/08 05:55:50;;;;;;;0.30;0.30;;;15.30;99.90;;;;;;4973718;28;20435;-66
2023/09/08 05:58:16;;;;;;;0.30;0.30;;;15.40;99.90;;;;;;4974158;28;20176;-65
2023/09/08 06:00:42;;;;;;;0.30;0.20;;;15.60;99.90;;;;;;4974198;28;20176;-66
2023/09/08 06:03:07;;;;;;;0.30;0.20;;;15.70;99.90;;;;;;4974143;28;20183;-66
2023/09/08 06:05:33;;;;;;;0.30;0.30;;;15.80;99.90;;;;;;4973453;28;20613;-65
2023/09/08 06:07:58;;;;;;;0.30;0.20;;;15.80;99.90;;;;;;4956508;28;20204;-69
2023/09/08 06:10:24;;;;;;;0.30;0.20;;;16.00;99.90;;;;;;4976100;28;20168;-66
2023/09/08 06:12:50;;;;;;;0.30;0.30;;;16.10;99.90;;;;;;4960293;28;20267;-65
2023/09/08 06:15:17;;;;;;;0.40;0.40;;;16.20;99.90;;;;;;4977544;28;20251;-64
2023/09/08 06:17:42;;;;;;;0.30;0.20;;;16.30;99.90;;;;;;4976848;28;20427;-66
2023/09/08 06:20:08;;;;;;;0.30;0.20;;;16.30;99.90;;;;;;4960220;28;20413;-65
2023/09/08 06:22:34;;;;;;;0.30;0.30;;;16.40;99.90;;;;;;4957625;29;20678;-66
2023/09/08 06:25:00;;;;;;;0.30;0.30;;;16.50;99.90;;;;;;4957589;29;20420;-64
2023/09/08 06:27:26;;;;;;;0.30;0.30;;;16.70;99.90;;;;;;4957121;29;20197;-64
2023/09/08 06:29:51;;;;;;;0.30;0.20;;;16.90;99.90;;;;;;4956602;29;20206;-66
2023/09/08 06:32:17;;;;;;;0.40;0.40;;;17.20;99.90;;;;;;4958173;29;20506;-67
2023/09/08 06:34:43;;;;;;;0.30;0.20;;;17.40;99.90;;;;;;4957813;29;20207;-64
2023/09/08 06:37:08;;;;;;;0.30;0.20;;;17.60;99.90;;;;;;4958200;29;20430;-67
2023/09/08 06:39:34;;;;;;;0.30;0.20;;;17.70;99.90;;;;;;4958213;29;20176;-67
2023/09/08 06:41:59;;;;;;;0.30;0.30;;;17.80;99.90;;;;;;4958113;29;20717;-64
2023/09/08 06:44:25;;;;;;;0.30;0.20;;;18.00;99.90;;;;;;4957952;29;20173;-66
2023/09/08 06:46:51;;;;;;;0.30;0.30;;;18.10;99.90;;;;;;4958125;29;20658;-66
2023/09/08 06:49:17;;;;;;;0.30;0.20;;;18.10;99.90;;;;;;4957836;29;20467;-65
2023/09/08 06:51:42;;;;;;;0.30;0.20;;;18.10;99.90;;;;;;4958090;29;20170;-64
2023/09/08 06:54:08;;;;;;;0.30;0.30;;;18.20;99.90;;;;;;4957624;28;20204;-65
2023/09/08 06:56:36;;;;;;;0.30;0.30;;;18.30;99.90;;;;;;4957560;28;20198;-65
2023/09/08 06:59:02;;;;;;;0.30;0.20;;;18.40;99.90;;;;;;4957603;29;20181;-65
2023/09/08 07:01:28;;;;;;;0.30;0.30;;;18.60;99.90;;;;;;4958391;29;20777;-66
2023/09/08 07:03:53;;;;;;;0.30;0.30;;;18.60;99.90;;;;;;4957481;28;20418;-64
2023/09/08 07:06:22;;;;;;;0.30;0.30;;;18.70;99.90;;;;;;4957500;29;20201;-66
2023/09/08 07:08:50;;;;;;;0.83;0.47;;;18.90;99.90;;;;;;4957269;28;20220;-67
2023/09/08 07:11:15;;;;;;;0.30;0.20;;;19.00;99.90;;;;;;4940811;29;20478;-66
2023/09/08 07:13:42;;;;;;;0.30;0.20;;;19.30;99.90;;;;;;4940321;29;20475;-64
2023/09/08 07:16:08;;;;;;;1.43;0.63;;;19.70;99.90;;;;;;4957197;29;20472;-66
2023/09/08 07:18:35;;;;;;;0.30;0.20;;;19.90;99.90;;;;;;4957449;29;20214;-63
2023/09/08 07:21:04;;;;;;;0.60;0.60;;;20.10;99.90;;;;;;4956509;28;20194;-66
2023/09/08 07:23:30;;;;;;;0.30;0.30;;;20.10;99.90;;;;;;4940189;29;20437;-64
2023/09/08 07:25:56;;;;;;;0.30;0.20;;;20.20;99.90;;;;;;4956927;29;20452;-66
2023/09/08 07:28:21;;;;;;;0.30;0.20;;;20.40;99.90;;;;;;4957150;29;20212;-64
2023/09/08 07:30:47;;;;;;;0.30;0.20;;;20.50;99.90;;;;;;4957127;29;20220;-66
2023/09/08 07:33:13;;;;;;;0.30;0.30;;;20.60;99.90;;;;;;4957292;28;20575;-65
2023/09/08 07:35:40;;;;;;;0.43;0.43;;;20.70;99.90;;;;;;4956646;29;20240;-65
2023/09/08 07:38:06;;;;;;;0.43;0.40;;;20.80;99.90;;;;;;4939940;29;20185;-66
2023/09/08 07:40:33;;;;;;;0.30;0.20;;;20.80;99.90;;;;;;4956933;28;20719;-65
2023/09/08 07:42:58;;;;;;;0.30;0.30;;;20.90;99.90;;;;;;4957581;28;20396;-65
2023/09/08 07:45:24;;;;;;;0.30;0.30;;;21.00;99.90;;;;;;4956374;28;20938;-65
2023/09/08 07:47:50;;;;;;;0.30;0.20;;;21.10;99.90;;;;;;4957047;28;20595;-67
2023/09/08 07:50:24;;;;;;;1.23;0.40;;;21.40;99.90;;;;;;4957018;29;20176;-65
2023/09/08 07:52:52;;;;;;;0.60;0.60;;;21.70;99.90;;;;;;4958092;28;20535;-65
2023/09/08 07:55:17;;;;;;;0.30;0.20;;;22.20;99.90;;;;;;4975605;28;20502;-66
2023/09/08 07:57:45;;;;;;;0.30;0.30;;;23.10;99.90;;;;;;4976095;28;20973;-67
2023/09/08 08:00:12;;;;;;;0.30;0.30;;;24.30;99.90;;;;;;4969161;28;20786;-64
2023/09/08 08:02:41;;;;;;;0.30;0.30;;;25.70;99.90;;;;;;4960563;28;20410;-67
2023/09/08 08:05:07;;;;;;;0.30;0.30;;;27.10;99.10;;;;;;4955927;29;20395;-66
2023/09/08 08:07:33;;;;;;;0.50;0.50;;;28.40;96.10;;;;;;4956007;29;20788;-64
2023/09/08 08:09:58;;;;;;;0.30;0.30;;;29.30;94.00;;;;;;4956344;29;20177;-64
2023/09/08 08:12:24;;;;;;;0.30;0.30;;;30.10;92.20;;;;;;4958604;28;20428;-67
2023/09/08 08:14:50;;;;;;;0.30;0.30;;;30.90;90.30;;;;;;4975185;28;20539;-67
2023/09/08 08:17:17;;;;;;;0.30;0.27;;;31.50;90.00;;;;;;4975517;28;20188;-65
2023/09/08 08:19:43;;;;;;;0.30;0.30;;;32.10;88.00;;;;;;4975545;28;20254;-67
2023/09/08 08:22:09;;;;;;;0.30;0.30;;;32.70;85.50;;;;;;4975521;28;20455;-64
2023/09/08 08:24:34;;;;;;;0.30;0.30;;;33.30;83.70;;;;;;4955789;28;20507;-67
2023/09/08 08:27:01;;;;;;;0.30;0.30;;;33.80;79.80;;;;;;4955885;29;20268;-65
2023/09/08 08:29:27;;;;;;;0.30;0.30;;;33.90;80.20;;;;;;4956180;29;20177;-68
2023/09/08 08:31:52;;;;;;;0.40;0.40;;;34.20;79.00;;;;;;4956172;29;20424;-64
2023/09/08 08:34:18;;;;;;;0.50;0.50;;;34.70;78.30;;;;;;4971597;28;20180;-67
2023/09/08 08:36:44;;;;;;;0.63;0.63;;;35.10;75.20;;;;;;4975160;28;20188;-65
2023/09/08 08:39:09;;;;;;;0.40;0.40;;;35.40;75.00;;;;;;4958537;28;20176;-65
2023/09/08 08:41:39;;;;;;;0.80;0.70;;;35.60;73.50;;;;;;4975250;28;20177;-64
2023/09/08 08:44:06;;;;;;;0.90;0.90;;;36.10;72.00;;;;;;4960137;28;20177;-67
2023/09/08 08:46:33;;;;;;;0.70;0.70;;;36.00;71.50;;;;;;4955743;29;20439;-65
2023/09/08 08:49:02;;;;;;;1.03;1.00;;;36.10;71.30;;;;;;4955815;29;20452;-67
2023/09/08 08:51:29;;;;;;;0.70;0.70;;;36.30;70.20;;;;;;4956027;29;20428;-67
2023/09/08 08:53:55;;;;;;;2.60;0.80;;;36.30;70.30;;;;;;4967924;28;20482;-64
2023/09/08 08:56:22;;;;;;;1.03;1.03;;;36.40;69.80;;;;;;4974509;28;20431;-68
2023/09/08 08:58:49;;;;;;;0.80;0.80;;;36.50;69.60;;;;;;4972403;28;20588;-66
2023/09/08 09:01:18;;;;;;;1.00;1.00;;;36.60;69.80;;;;;;4975145;28;20412;-68
2023/09/08 09:03:48;;;;;;;1.10;1.10;;;36.90;67.90;;;;;;4974659;28;20426;-64
2023/09/08 09:06:14;;;;;;;1.30;1.30;;;36.90;67.80;;;;;;4974857;28;20845;-67
2023/09/08 09:08:43;;;;;;;1.13;1.03;;;37.10;67.60;;;;;;4957487;28;20539;-66
2023/09/08 09:11:10;;;;;;;0.80;0.80;;;37.40;67.10;;;;;;4954952;29;20807;-65
2023/09/08 09:13:35;;;;;;;1.17;1.17;;;37.60;65.70;;;;;;4954466;29;20413;-67
2023/09/08 09:16:03;;;;;;;1.57;1.47;;;37.40;65.90;;;;;;4954514;29;20432;-67
2023/09/08 09:18:30;;;;;;;1.37;1.37;;;37.40;65.80;;;;;;4969254;28;20185;-65
2023/09/08 09:20:59;;;;;;;0.97;0.97;;;37.50;66.40;;;;;;4973878;28;20917;-68
2023/09/08 09:23:33;;;;;;;0.70;0.70;;;37.70;64.40;;;;;;4973978;28;20748;-65
2023/09/08 09:26:00;;;;;;;0.90;0.90;;;37.60;65.10;;;;;;4973748;28;20459;-68
2023/09/08 09:28:28;;;;;;;1.43;1.23;;;37.70;65.80;;;;;;4960121;28;21041;-65
2023/09/08 09:30:56;;;;;;;1.00;1.00;;;37.80;64.30;;;;;;4954397;29;20420;-67
2023/09/08 09:33:23;;;;;;;1.00;1.00;;;38.30;63.40;;;;;;4954338;29;20424;-65
2023/09/08 09:35:50;;;;;;;1.00;1.00;;;38.60;61.50;;;;;;4954179;29;20756;-68
2023/09/08 09:38:19;;;;;;;0.80;0.80;;;38.50;61.80;;;;;;4965717;28;20443;-65
2023/09/08 09:40:45;;;;;;;1.40;1.30;;;38.30;61.60;;;;;;4973751;28;20415;-67
2023/09/08 09:43:12;;;;;;;1.60;1.50;;;38.00;62.70;;;;;;4973667;28;20408;-66
2023/09/08 09:45:39;;;;;;;1.17;1.17;;;38.10;62.40;;;;;;4975558;28;20877;-68
2023/09/08 09:48:07;;;;;;;1.30;1.20;;;38.50;62.10;;;;;;4947214;28;20799;-65
2023/09/08 09:50:39;;;;;;;1.40;1.40;;;38.80;61.50;;;;;;4957897;29;20414;-68
2023/09/08 09:53:12;;;;;;;1.50;1.40;;;39.40;60.20;;;;;;4957499;28;20417;-65
2023/09/08 09:55:39;;;;;;;1.23;1.23;;;40.10;59.50;;;;;;4957116;29;20480;-66
2023/09/08 09:58:06;;;;;;;1.40;1.40;;;40.60;58.70;;;;;;4969551;28;20471;-68
2023/09/08 10:00:33;;;;;;;1.43;1.33;;;40.70;59.10;;;;;;4976981;28;20434;-65
2023/09/08 10:02:59;;;;;;;1.47;1.47;;;40.70;58.70;;;;;;4976847;28;20435;-68
2023/09/08 10:05:25;;;;;;;1.40;1.30;;;40.30;57.80;;;;;;4976500;28;20415;-65
2023/09/08 10:07:52;;;;;;;1.17;1.17;;;39.70;58.10;;;;;;4919038;28;1422316;-65
2023/09/08 10:10:18;;;;;;;1.10;1.10;;;39.20;59.10;;;;;;4958354;28;20654;-65
2023/09/08 10:12:46;;;;;;;1.13;1.13;;;39.10;58.70;;;;;;4958629;29;20811;-67
2023/09/08 10:15:13;;;;;;;1.37;1.27;;;38.80;58.60;;;;;;4958149;28;20420;-65
2023/09/08 10:17:40;;;;;;;1.40;1.40;;;38.50;59.00;;;;;;4968817;28;20487;-67
2023/09/08 10:20:11;;;;;;;1.23;1.17;;;38.10;59.80;;;;;;4977715;28;20407;-65
2023/09/08 10:22:41;;;;;;;1.30;1.20;;;37.90;59.60;;;;;;4977429;28;20426;-68
2023/09/08 10:25:08;;;;;;;1.23;1.13;;;37.70;60.00;;;;;;4977112;28;20422;-65
2023/09/08 10:27:35;;;;;;;0.70;0.70;;;37.40;60.60;;;;;;4967475;28;20444;-68
2023/09/08 10:30:04;;;;;;;1.37;1.37;;;37.40;61.00;;;;;;4958240;29;20428;-65
2023/09/08 10:32:32;;;;;;;1.80;1.70;;;37.30;60.10;;;;;;4957994;28;20444;-67
2023/09/08 10:35:00;;;;;;;1.10;1.00;;;36.80;61.40;;;;;;4940611;29;20450;-64
2023/09/08 10:37:29;;;;;;;1.03;0.60;;;36.70;60.90;;;;;;4966059;28;20499;-64
2023/09/08 10:39:56;;;;;;;2.10;1.20;;;36.40;61.60;;;;;;4977508;28;20433;-65
2023/09/08 10:42:27;;;;;;;0.80;0.80;;;36.40;63.70;;;;;;4969485;28;20428;-67
2023/09/08 10:45:04;;;;;;;0.70;0.70;;;36.20;62.80;;;;;;4957593;29;20419;-64
2023/09/08 10:47:41;;;;;;;1.00;1.00;;;35.90;63.00;;;;;;4958058;29;20523;-67
2023/09/08 10:50:08;;;;;;;0.70;0.70;;;35.90;64.10;;;;;;4958006;29;20412;-65
2023/09/08 10:52:35;;;;;;;1.10;1.10;;;36.10;62.40;;;;;;4965605;28;20443;-68
2023/09/08 10:55:01;;;;;;;0.70;0.70;;;36.00;63.50;;;;;;4959463;28;20424;-65
2023/09/08 10:57:27;;;;;;;1.10;1.00;;;36.00;62.40;;;;;;4975733;28;20604;-68
2023/09/08 10:59:55;;;;;;;1.50;1.40;;;36.00;62.80;;;;;;4960067;28;20415;-66
2023/09/08 11:02:46;;;;;;;1.17;1.00;;;36.10;62.80;;;;;;4970506;28;20498;-67
2023/09/08 11:05:14;;;;;;;1.33;1.13;;;36.30;62.80;;;;;;4957324;29;20945;-66
2023/09/08 11:07:41;;;;;;;1.60;1.20;;;36.30;64.20;;;;;;4957596;28;20444;-66
2023/09/08 11:10:08;;;;;;;1.57;1.27;;;35.70;62.00;;;;;;4957632;29;20496;-64
2023/09/08 11:12:34;;;;;;;1.70;1.13;;;34.70;63.50;;;;;;4957639;28;20456;-66
2023/09/08 11:15:05;;;;;;;1.10;1.10;;;33.80;66.20;;;;;;4957003;28;20942;-64
2023/09/08 11:17:32;;;;;;;1.23;1.13;;;32.90;69.10;;;;;;4957253;29;20446;-66
2023/09/08 11:19:58;;;;;;;1.50;1.40;;;32.30;71.20;;;;;;4957375;28;20445;-66
2023/09/08 11:22:25;;;;;;;0.87;0.70;;;31.80;71.40;;;;;;4962606;28;20420;-67
2023/09/08 11:25:00;;;;;;;1.90;1.03;;;31.40;72.90;;;;;;4976224;28;20422;-64
2023/09/08 11:27:28;;;;;;;0.93;0.93;;;30.70;75.60;;;;;;4976335;28;20450;-66
2023/09/08 11:29:54;;;;;;;1.30;1.20;;;30.30;75.50;;;;;;4976712;28;20766;-66
2023/09/08 11:32:20;;;;;;;0.80;0.80;;;30.00;76.90;;;;;;4954758;28;20439;-66
2023/09/08 11:34:45;;;;;;;1.30;1.17;;;29.50;80.60;;;;;;4956882;29;20185;-64
2023/09/08 11:37:13;;;;;;;0.60;0.60;;;29.20;80.30;;;;;;4957195;29;20200;-66
2023/09/08 11:39:43;;;;;;;1.20;1.20;;;28.90;82.50;;;;;;4956994;29;20180;-66
2023/09/08 11:42:11;;;;;;;2.10;1.27;;;28.80;83.00;;;;;;4958167;28;20873;-67
2023/09/08 11:44:37;;;;;;;1.07;1.07;;;28.70;83.00;;;;;;4976048;28;20743;-65
2023/09/08 11:47:04;;;;;;;1.03;1.03;;;28.70;84.10;;;;;;4974357;28;20828;-65
2023/09/08 11:49:37;;;;;;;1.50;1.40;;;28.70;86.40;;;;;;4958017;28;20414;-66
2023/09/08 11:52:04;;;;;;;0.50;0.50;;;28.80;85.20;;;;;;4956921;29;20395;-64
2023/09/08 11:54:34;;;;;;;1.93;1.83;;;28.90;84.70;;;;;;4956592;29;20390;-65
2023/09/08 11:57:01;;;;;;;1.17;1.07;;;28.90;84.30;;;;;;4959177;28;20446;-67
2023/09/08 11:59:30;;;;;;;1.60;1.50;;;28.90;85.70;;;;;;4976201;28;20491;-64
2023/09/08 12:01:56;;;;;;;1.20;1.17;;;28.80;85.80;;;;;;4975115;28;20390;-64
2023/09/08 12:04:22;;;;;;;1.57;1.47;;;28.80;84.60;;;;;;4956296;29;20879;-67
2023/09/08 12:06:52;;;;;;;1.53;1.00;;;28.90;84.50;;;;;;4956186;28;20422;-65
2023/09/08 12:09:20;;;;;;;0.73;0.73;;;28.90;86.40;;;;;;4956214;28;20425;-67
2023/09/08 12:11:46;;;;;;;1.07;1.03;;;28.90;87.50;;;;;;4956782;28;20387;-64
2023/09/08 12:14:13;;;;;;;1.00;1.00;;;28.90;85.80;;;;;;4956984;28;20410;-68
2023/09/08 12:16:39;;;;;;;0.50;0.50;;;28.90;84.70;;;;;;4956319;29;20400;-65
2023/09/08 12:19:06;;;;;;;1.23;1.13;;;28.80;84.50;;;;;;4956533;29;20447;-68
2023/09/08 12:21:35;;;;;;;1.00;1.00;;;28.90;83.80;;;;;;4956377;29;20422;-65
2023/09/08 12:24:00;;;;;;;1.20;1.20;;;28.80;83.10;;;;;;4970901;28;20453;-68
2023/09/08 12:26:27;;;;;;;0.73;0.73;;;28.80;82.50;;;;;;4958151;28;20928;-65
2023/09/08 12:28:53;;;;;;;0.90;0.90;;;28.70;85.60;;;;;;4975365;28;20182;-63
2023/09/08 12:31:18;;;;;;;1.13;0.90;;;28.60;88.20;;;;;;4974521;28;20440;-66
2023/09/08 12:33:44;;;;;;;0.87;0.70;;;28.70;82.90;;;;;;4975182;28;20447;-67
2023/09/08 12:36:19;;;;;;;0.50;0.50;;;28.70;83.20;;;;;;4975241;28;20203;-67
2023/09/08 12:38:52;;;;;;;0.67;0.67;;;28.70;82.80;;;;;;4959685;28;20525;-65
2023/09/08 12:41:19;;;;;;;0.50;0.50;;;28.70;83.30;;;;;;4956102;29;20382;-66
2023/09/08 12:43:45;;;;;;;0.77;0.67;;;28.70;83.50;;;;;;4955704;28;20411;-67
2023/09/08 12:46:11;;;;;;;0.97;0.57;;;28.70;84.90;;;;;;4955825;29;20432;-66
2023/09/08 12:48:37;;;;;;;1.07;0.90;;;28.70;82.80;;;;;;4969247;28;20424;-63
2023/09/08 12:51:03;;;;;;;0.40;0.40;;;28.70;83.60;;;;;;4975258;28;20386;-68
2023/09/08 12:53:33;;;;;;;0.90;0.90;;;28.70;84.60;;;;;;4975002;28;20176;-64
2023/09/08 12:55:58;;;;;;;0.70;0.70;;;28.80;85.50;;;;;;4974842;28;20231;-67
2023/09/08 12:58:24;;;;;;;1.07;1.00;;;28.80;83.90;;;;;;4962958;28;20438;-64
2023/09/08 13:00:50;;;;;;;1.10;1.07;;;28.80;83.40;;;;;;4955632;29;20185;-66
2023/09/08 13:03:15;;;;;;;1.10;1.10;;;28.90;84.60;;;;;;4955424;29;20176;-66
2023/09/08 13:05:42;;;;;;;1.53;0.97;;;28.80;83.80;;;;;;4938126;29;20196;-67
2023/09/08 13:08:07;;;;;;;1.17;1.17;;;28.80;84.20;;;;;;4964508;28;20202;-67
2023/09/08 13:10:33;;;;;;;1.80;1.70;;;28.80;83.80;;;;;;4974796;28;20408;-68
2023/09/08 13:12:58;;;;;;;1.30;1.00;;;28.90;84.10;;;;;;4974924;28;20179;-65
2023/09/08 13:15:24;;;;;;;0.80;0.80;;;28.80;83.70;;;;;;4974343;28;20269;-66
2023/09/08 13:17:50;;;;;;;0.93;0.93;;;28.80;86.30;;;;;;4967742;28;20220;-65
2023/09/08 13:20:15;;;;;;;0.73;0.73;;;28.80;88.00;;;;;;4954867;29;20204;-63
2023/09/08 13:22:41;;;;;;;1.70;1.43;;;28.80;88.10;;;;;;4955486;29;20669;-67
2023/09/08 13:25:07;;;;;;;0.60;0.60;;;28.80;87.60;;;;;;4955069;28;20216;-67
2023/09/08 13:27:32;;;;;;;0.73;0.73;;;28.80;87.30;;;;;;4959027;28;20637;-65
2023/09/08 13:30:15;;;;;;;0.60;0.50;;;28.80;86.60;;;;;;4974219;28;20455;-67
2023/09/08 13:32:41;;;;;;;1.00;0.90;;;28.80;88.30;;;;;;4974858;28;20238;-67
2023/09/08 13:35:07;;;;;;;1.23;1.20;;;28.80;90.60;;;;;;4974351;28;20482;-67
2023/09/08 13:37:34;;;;;;;0.87;0.87;;;28.80;90.00;;;;;;4970309;28;20443;-67
2023/09/08 13:40:03;;;;;;;0.80;0.80;;;28.80;87.20;;;;;;4955369;29;20387;-65
2023/09/08 13:42:29;;;;;;;1.10;1.00;;;28.90;85.80;;;;;;4955467;29;20402;-67
2023/09/08 13:44:55;;;;;;;1.33;1.23;;;28.90;85.80;;;;;;4937572;29;20435;-64
2023/09/08 13:47:20;;;;;;;0.57;0.57;;;28.80;88.10;;;;;;4956303;28;20200;-67
2023/09/08 13:49:46;;;;;;;0.80;0.80;;;28.80;86.50;;;;;;4974087;28;20454;-67
2023/09/08 13:52:12;;;;;;;0.40;0.40;;;28.80;86.80;;;;;;4974464;28;20177;-67
2023/09/08 13:54:38;;;;;;;0.93;0.70;;;28.80;88.40;;;;;;4956785;28;20256;-67
2023/09/08 13:57:04;;;;;;;1.03;0.80;;;28.80;86.90;;;;;;4974439;28;20602;-67
2023/09/08 13:59:30;;;;;;;1.43;1.23;;;28.70;86.70;;;;;;4955943;28;20446;-64
2023/09/08 14:01:57;;;;;;;1.93;1.77;;;28.70;86.90;;;;;;4955885;29;20727;-66
2023/09/08 14:04:23;;;;;;;0.57;0.57;;;28.70;87.10;;;;;;4954698;28;20384;-66
2023/09/08 14:06:49;;;;;;;1.47;1.37;;;28.70;88.60;;;;;;4954928;29;20502;-65
2023/09/08 14:09:15;;;;;;;1.77;1.70;;;28.70;87.90;;;;;;4962805;28;20538;-66
2023/09/08 14:11:41;;;;;;;0.60;0.60;;;28.70;87.80;;;;;;4955084;29;20224;-65
2023/09/08 14:14:06;;;;;;;1.30;1.30;;;28.60;86.70;;;;;;4937502;29;20185;-68
2023/09/08 14:16:32;;;;;;;0.83;0.83;;;28.60;86.50;;;;;;4954803;29;20560;-64
2023/09/08 14:18:57;;;;;;;0.77;0.77;;;28.60;86.80;;;;;;4958788;28;20203;-67
2023/09/08 14:21:23;;;;;;;0.60;0.60;;;28.60;88.90;;;;;;4973848;28;20180;-64
2023/09/08 14:23:49;;;;;;;0.83;0.83;;;28.70;88.90;;;;;;4973567;28;20180;-66
2023/09/08 14:26:14;;;;;;;0.97;0.90;;;28.70;89.20;;;;;;4974022;28;20546;-67
2023/09/08 14:28:40;;;;;;;2.40;1.50;;;28.70;87.80;;;;;;4972411;28;20184;-65
2023/09/08 14:31:05;;;;;;;1.43;1.33;;;28.70;88.30;;;;;;4956369;28;20191;-66
2023/09/08 14:33:31;;;;;;;1.13;1.13;;;28.70;87.10;;;;;;4958217;29;20651;-67
2023/09/08 14:35:57;;;;;;;1.10;1.00;;;28.70;87.00;;;;;;4940613;29;20611;-67
2023/09/08 14:38:23;;;;;;;1.57;1.47;;;28.60;86.60;;;;;;4958265;29;20213;-65
2023/09/08 14:41:00;;;;;;;1.00;1.00;;;28.60;86.50;;;;;;4975516;28;20474;-63
2023/09/08 14:43:27;;;;;;;0.83;0.83;;;28.60;86.80;;;;;;4960997;28;20431;-66
2023/09/08 14:45:52;;;;;;;1.07;0.97;;;28.60;86.40;;;;;;4957718;28;20440;-68
2023/09/08 14:48:19;;;;;;;1.03;1.03;;;28.60;87.50;;;;;;4958036;28;20401;-64
2023/09/08 14:50:45;;;;;;;0.70;0.70;;;28.60;87.60;;;;;;4957935;29;20184;-68
2023/09/08 14:53:10;;;;;;;1.57;1.43;;;28.60;88.00;;;;;;4970659;28;20408;-65
2023/09/08 14:55:36;;;;;;;0.53;0.53;;;28.60;89.50;;;;;;4976609;28;20207;-67
2023/09/08 14:58:02;;;;;;;0.87;0.87;;;28.50;89.70;;;;;;4976884;28;20211;-64
2023/09/08 15:00:28;;;;;;;0.83;0.83;;;28.50;88.50;;;;;;4977236;28;20408;-68
2023/09/08 15:02:53;;;;;;;0.50;0.50;;;28.50;88.40;;;;;;4966322;28;20183;-67
2023/09/08 15:05:19;;;;;;;1.10;1.10;;;28.50;88.00;;;;;;4957394;29;20176;-68
2023/09/08 15:07:45;;;;;;;0.77;0.77;;;28.50;87.30;;;;;;4957715;28;20183;-68
2023/09/08 15:10:10;;;;;;;1.73;1.10;;;28.50;87.60;;;;;;4957666;29;20182;-66
2023/09/08 15:12:36;;;;;;;1.23;1.13;;;28.50;88.20;;;;;;4964722;28;20178;-67
2023/09/08 15:15:03;;;;;;;0.60;0.60;;;28.50;88.10;;;;;;4976671;28;20552;-65
2023/09/08 15:17:28;;;;;;;1.27;1.17;;;28.50;87.80;;;;;;4976550;28;20290;-66
2023/09/08 15:19:54;;;;;;;1.10;1.10;;;28.40;87.80;;;;;;4976909;28;20506;-65
2023/09/08 15:22:20;;;;;;;0.77;0.47;;;28.40;87.90;;;;;;4971319;28;20649;-67
2023/09/08 15:24:45;;;;;;;0.40;0.40;;;28.40;87.70;;;;;;4957079;28;20626;-65
2023/09/08 15:27:11;;;;;;;0.83;0.83;;;28.40;88.00;;;;;;4957388;28;20281;-65
2023/09/08 15:29:36;;;;;;;0.97;0.97;;;28.40;88.70;;;;;;4957464;29;20555;-67
2023/09/08 15:32:03;;;;;;;0.60;0.60;;;28.40;88.30;;;;;;4959387;28;20231;-65
2023/09/08 15:34:28;;;;;;;0.80;0.80;;;28.30;87.90;;;;;;4976195;28;20186;-65
2023/09/08 15:36:54;;;;;;;0.40;0.40;;;28.30;88.10;;;;;;4976303;28;20734;-64
2023/09/08 15:39:21;;;;;;;0.60;0.60;;;28.30;89.10;;;;;;4959097;28;20207;-65
2023/09/08 15:41:47;;;;;;;1.30;1.20;;;28.20;88.20;;;;;;4975913;28;20742;-65
2023/09/08 15:44:14;;;;;;;0.70;0.70;;;28.20;88.30;;;;;;4970491;28;20444;-67
2023/09/08 15:46:39;;;;;;;1.20;1.20;;;28.20;88.30;;;;;;4957024;28;20409;-65
2023/09/08 15:49:05;;;;;;;0.73;0.73;;;28.20;87.90;;;;;;4957066;28;20428;-67
2023/09/08 15:51:30;;;;;;;1.17;1.17;;;28.10;88.20;;;;;;4957441;28;20184;-64
2023/09/08 15:53:56;;;;;;;0.57;0.57;;;28.10;88.10;;;;;;4974901;28;20704;-64
2023/09/08 15:56:22;;;;;;;0.40;0.40;;;28.00;88.00;;;;;;4973749;28;20277;-64
2023/09/08 15:58:47;;;;;;;0.70;0.70;;;28.00;88.50;;;;;;4971597;28;20691;-64
2023/09/08 16:01:13;;;;;;;0.77;0.77;;;28.00;88.20;;;;;;4947332;29;20667;-67
2023/09/08 16:03:39;;;;;;;0.57;0.57;;;28.00;89.00;;;;;;4969179;28;20233;-63
2023/09/08 16:06:04;;;;;;;2.20;2.10;;;27.90;88.00;;;;;;4956167;28;20272;-64
2023/09/08 16:08:31;;;;;;;0.83;0.70;;;27.90;89.00;;;;;;4968598;28;20193;-64
2023/09/08 16:10:59;;;;;;;0.77;0.77;;;27.80;89.10;;;;;;4975490;28;20260;-68
2023/09/08 16:13:24;;;;;;;0.40;0.33;;;27.80;89.30;;;;;;4974315;28;20460;-65
2023/09/08 16:15:50;;;;;;;0.63;0.63;;;27.70;88.90;;;;;;4969857;28;20424;-65
2023/09/08 16:18:15;;;;;;;1.30;1.20;;;27.70;89.40;;;;;;4975177;28;20632;-64
2023/09/08 16:20:41;;;;;;;1.07;1.07;;;27.70;88.30;;;;;;4956492;29;20548;-67
2023/09/08 16:23:07;;;;;;;0.70;0.70;;;27.60;88.60;;;;;;4956354;28;20202;-66
2023/09/08 16:25:33;;;;;;;1.70;1.60;;;27.60;89.20;;;;;;4956046;29;20202;-66
2023/09/08 16:27:58;;;;;;;0.70;0.70;;;27.50;88.90;;;;;;4956111;29;20189;-66
2023/09/08 16:30:24;;;;;;;0.50;0.50;;;27.50;89.20;;;;;;4956144;28;20227;-66
2023/09/08 16:32:49;;;;;;;0.60;0.60;;;27.40;89.30;;;;;;4975166;28;20194;-65
2023/09/08 16:35:15;;;;;;;1.40;1.30;;;27.40;89.40;;;;;;4974746;28;20182;-63
2023/09/08 16:37:41;;;;;;;0.60;0.60;;;27.30;90.00;;;;;;4975081;28;20205;-64
2023/09/08 16:40:07;;;;;;;0.80;0.77;;;27.30;90.20;;;;;;4957830;28;20311;-65
2023/09/08 16:42:32;;;;;;;0.53;0.53;;;27.20;90.10;;;;;;4964312;28;20185;-63
2023/09/08 16:44:58;;;;;;;0.93;0.90;;;27.10;90.10;;;;;;4962813;28;20401;-64
2023/09/08 16:47:25;;;;;;;0.40;0.40;;;27.10;90.30;;;;;;4974696;28;20201;-63
2023/09/08 16:49:52;;;;;;;0.50;0.50;;;27.00;90.30;;;;;;4957766;28;20268;-62